sensor_id;sensor_type;location;lat;lon;timestamp;temperature;humidity
9450;DHT22;4763;48.370;10.874;2023-04-03T00:01:29;3.60;99.90
9450;DHT22;4763;48.370;10.874;2023-04-03T00:04:16;3.50;99.90
9450;DHT22;4763;48.370;10.874;2023-04-03T00:07:03;3.60;99.90
9450;DHT22;4763;48.370;10.874;2023-04-03T00:09:50;3.60;99.90
9450;DHT22;4763;48.370;10.874;2023-04-03T00:12:37;3.50;99.90
9450;DHT22;4763;48.370;10.874;2023-04-03T00:15:26;3.50;99.90
9450;DHT22;4763;48.370;10.874;2023-04-03T00:18:13;3.50;99.90
9450;DHT22;4763;48.370;10.874;2023-04-03T00:21:01;3.50;99.90
9450;DHT22;4763;48.370;10.874;2023-04-03T00:23:48;3.50;99.90
9450;DHT22;4763;48.370;10.874;2023-04-03T00:26:36;3.50;99.90
9450;DHT22;4763;48.370;10.874;2023-04-03T00:29:23;3.50;99.90
9450;DHT22;4763;48.370;10.874;2023-04-03T00:32:11;3.40;99.90
9450;DHT22;4763;48.370;10.874;2023-04-03T00:34:58;3.40;99.90
9450;DHT22;4763;48.370;10.874;2023-04-03T00:37:45;3.40;99.90
9450;DHT22;4763;48.370;10.874;2023-04-03T00:40:34;3.40;99.90
9450;DHT22;4763;48.370;10.874;2023-04-03T00:43:24;3.40;99.90
9450;DHT22;4763;48.370;10.874;2023-04-03T00:46:12;3.40;99.90
9450;DHT22;4763;48.370;10.874;2023-04-03T00:49:00;3.30;99.90
9450;DHT22;4763;48.370;10.874;2023-04-03T00:51:47;3.30;99.90
9450;DHT22;4763;48.370;10.874;2023-04-03T00:54:35;3.30;99.90
9450;DHT22;4763;48.370;10.874;2023-04-03T00:57:23;3.40;99.90
9450;DHT22;4763;48.370;10.874;2023-04-03T01:00:13;3.30;99.90
9450;DHT22;4763;48.370;10.874;2023-04-03T01:03:01;3.30;99.90
9450;DHT22;4763;48.370;10.874;2023-04-03T01:05:50;3.30;99.90
9450;DHT22;4763;48.370;10.874;2023-04-03T01:08:38;3.30;99.90
9450;DHT22;4763;48.370;10.874;2023-04-03T01:11:26;3.30;99.90
9450;DHT22;4763;48.370;10.874;2023-04-03T01:14:13;3.40;99.90
9450;DHT22;4763;48.370;10.874;2023-04-03T01:17:00;3.40;99.90
9450;DHT22;4763;48.370;10.874;2023-04-03T01:19:55;3.30;99.90
9450;DHT22;4763;48.370;10.874;2023-04-03T01:22:49;3.30;99.90
9450;DHT22;4763;48.370;10.874;2023-04-03T01:25:40;3.30;99.90
9450;DHT22;4763;48.370;10.874;2023-04-03T01:28:30;3.30;99.90
9450;DHT22;4763;48.370;10.874;2023-04-03T01:31:22;3.30;99.90
9450;DHT22;4763;48.370;10.874;2023-04-03T01:34:12;3.30;99.90
9450;DHT22;4763;48.370;10.874;2023-04-03T01:36:59;3.30;99.90
9450;DHT22;4763;48.370;10.874;2023-04-03T01:39:46;3.30;99.90
9450;DHT22;4763;48.370;10.874;2023-04-03T01:42:33;3.20;99.90
9450;DHT22;4763;48.370;10.874;2023-04-03T01:45:20;3.20;99.90
9450;DHT22;4763;48.370;10.874;2023-04-03T01:48:07;3.30;99.90
9450;DHT22;4763;48.370;10.874;2023-04-03T01:50:56;3.30;99.90
9450;DHT22;4763;48.370;10.874;2023-04-03T01:53:43;3.30;99.90
9450;DHT22;4763;48.370;10.874;2023-04-03T01:56:30;3.30;99.90
9450;DHT22;4763;48.370;10.874;2023-04-03T01:59:17;3.30;99.90
9450;DHT22;4763;48.370;10.874;2023-04-03T02:02:05;3.20;99.90
9450;DHT22;4763;48.370;10.874;2023-04-03T02:04:52;3.20;99.90
9450;DHT22;4763;48.370;10.874;2023-04-03T02:07:40;3.20;99.90
9450;DHT22;4763;48.370;10.874;2023-04-03T02:10:27;3.20;99.90
9450;DHT22;4763;48.370;10.874;2023-04-03T02:13:14;3.20;99.90
9450;DHT22;4763;48.370;10.874;2023-04-03T02:16:06;3.20;99.90
9450;DHT22;4763;48.370;10.874;2023-04-03T02:18:54;3.20;99.90
9450;DHT22;4763;48.370;10.874;2023-04-03T02:21:41;3.20;99.90
9450;DHT22;4763;48.370;10.874;2023-04-03T02:24:30;3.20;99.90
9450;DHT22;4763;48.370;10.874;2023-04-03T02:27:17;3.20;99.90
9450;DHT22;4763;48.370;10.874;2023-04-03T02:30:05;3.10;99.90
9450;DHT22;4763;48.370;10.874;2023-04-03T02:32:52;3.10;99.90
9450;DHT22;4763;48.370;10.874;2023-04-03T02:35:39;3.10;99.90
9450;DHT22;4763;48.370;10.874;2023-04-03T02:38:27;3.10;99.90
9450;DHT22;4763;48.370;10.874;2023-04-03T02:41:15;3.10;99.90
9450;DHT22;4763;48.370;10.874;2023-04-03T02:44:04;3.20;99.90
9450;DHT22;4763;48.370;10.874;2023-04-03T02:46:51;3.20;99.90
9450;DHT22;4763;48.370;10.874;2023-04-03T02:49:38;3.10;99.90
9450;DHT22;4763;48.370;10.874;2023-04-03T02:52:25;3.20;99.90
9450;DHT22;4763;48.370;10.874;2023-04-03T02:55:13;3.10;99.90
9450;DHT22;4763;48.370;10.874;2023-04-03T02:58:02;3.10;99.90
9450;DHT22;4763;48.370;10.874;2023-04-03T03:00:49;3.10;99.90
9450;DHT22;4763;48.370;10.874;2023-04-03T03:03:37;3.10;99.90
9450;DHT22;4763;48.370;10.874;2023-04-03T03:06:24;3.10;99.90
9450;DHT22;4763;48.370;10.874;2023-04-03T03:09:11;3.10;99.90
9450;DHT22;4763;48.370;10.874;2023-04-03T03:11:58;3.10;99.90
9450;DHT22;4763;48.370;10.874;2023-04-03T03:14:47;3.10;99.90
9450;DHT22;4763;48.370;10.874;2023-04-03T03:17:34;3.10;99.90
9450;DHT22;4763;48.370;10.874;2023-04-03T03:20:21;3.00;99.90
9450;DHT22;4763;48.370;10.874;2023-04-03T03:23:09;3.10;99.90
9450;DHT22;4763;48.370;10.874;2023-04-03T03:25:56;3.10;99.90
9450;DHT22;4763;48.370;10.874;2023-04-03T03:28:43;3.10;99.90
9450;DHT22;4763;48.370;10.874;2023-04-03T03:31:32;3.10;99.90
9450;DHT22;4763;48.370;10.874;2023-04-03T03:34:20;3.00;99.90
9450;DHT22;4763;48.370;10.874;2023-04-03T03:37:07;3.10;99.90
9450;DHT22;4763;48.370;10.874;2023-04-03T03:39:54;3.00;99.90
9450;DHT22;4763;48.370;10.874;2023-04-03T03:42:41;3.00;99.90
9450;DHT22;4763;48.370;10.874;2023-04-03T03:45:28;3.00;99.90
9450;DHT22;4763;48.370;10.874;2023-04-03T03:48:17;3.00;99.90
9450;DHT22;4763;48.370;10.874;2023-04-03T03:51:05;3.00;99.90
9450;DHT22;4763;48.370;10.874;2023-04-03T03:53:52;3.00;99.90
9450;DHT22;4763;48.370;10.874;2023-04-03T03:56:39;3.00;99.90
9450;DHT22;4763;48.370;10.874;2023-04-03T03:59:27;2.90;99.90
9450;DHT22;4763;48.370;10.874;2023-04-03T04:02:14;3.00;99.90
9450;DHT22;4763;48.370;10.874;2023-04-03T04:05:04;3.00;99.90
9450;DHT22;4763;48.370;10.874;2023-04-03T04:07:51;3.00;99.90
9450;DHT22;4763;48.370;10.874;2023-04-03T04:10:38;3.00;99.90
9450;DHT22;4763;48.370;10.874;2023-04-03T04:13:25;3.00;99.90
9450;DHT22;4763;48.370;10.874;2023-04-03T04:16:12;3.00;99.90
9450;DHT22;4763;48.370;10.874;2023-04-03T04:18:59;3.00;99.90
9450;DHT22;4763;48.370;10.874;2023-04-03T04:21:48;2.90;99.90
9450;DHT22;4763;48.370;10.874;2023-04-03T04:24:35;2.90;99.90
9450;DHT22;4763;48.370;10.874;2023-04-03T04:27:22;2.90;99.90
9450;DHT22;4763;48.370;10.874;2023-04-03T04:30:10;2.90;99.90
9450;DHT22;4763;48.370;10.874;2023-04-03T04:32:58;3.00;99.90
9450;DHT22;4763;48.370;10.874;2023-04-03T04:35:47;2.90;99.90
9450;DHT22;4763;48.370;10.874;2023-04-03T04:38:35;2.90;99.90
9450;DHT22;4763;48.370;10.874;2023-04-03T04:41:23;2.90;99.90
9450;DHT22;4763;48.370;10.874;2023-04-03T04:44:10;2.90;99.90
9450;DHT22;4763;48.370;10.874;2023-04-03T04:46:57;2.90;99.90
9450;DHT22;4763;48.370;10.874;2023-04-03T04:49:44;2.90;99.90
9450;DHT22;4763;48.370;10.874;2023-04-03T04:52:33;2.90;99.90
9450;DHT22;4763;48.370;10.874;2023-04-03T04:55:21;2.90;99.90
9450;DHT22;4763;48.370;10.874;2023-04-03T04:58:08;2.90;99.90
9450;DHT22;4763;48.370;10.874;2023-04-03T05:00:58;2.90;99.90
9450;DHT22;4763;48.370;10.874;2023-04-03T05:03:46;2.90;99.90
9450;DHT22;4763;48.370;10.874;2023-04-03T05:06:33;2.90;99.90
9450;DHT22;4763;48.370;10.874;2023-04-03T05:09:20;2.90;99.90
9450;DHT22;4763;48.370;10.874;2023-04-03T05:12:09;2.90;99.90
9450;DHT22;4763;48.370;10.874;2023-04-03T05:14:56;2.90;99.90
9450;DHT22;4763;48.370;10.874;2023-04-03T05:17:43;2.90;99.90
9450;DHT22;4763;48.370;10.874;2023-04-03T05:20:31;2.90;99.90
9450;DHT22;4763;48.370;10.874;2023-04-03T05:23:18;2.90;99.90
9450;DHT22;4763;48.370;10.874;2023-04-03T05:26:05;2.90;99.90
9450;DHT22;4763;48.370;10.874;2023-04-03T05:28:54;2.90;99.90
9450;DHT22;4763;48.370;10.874;2023-04-03T05:31:41;2.90;99.90
9450;DHT22;4763;48.370;10.874;2023-04-03T05:34:28;2.90;99.90
9450;DHT22;4763;48.370;10.874;2023-04-03T05:37:15;2.90;99.90
9450;DHT22;4763;48.370;10.874;2023-04-03T05:40:03;2.90;99.90
9450;DHT22;4763;48.370;10.874;2023-04-03T05:42:50;2.90;99.90
9450;DHT22;4763;48.370;10.874;2023-04-03T05:45:40;3.00;99.90
9450;DHT22;4763;48.370;10.874;2023-04-03T05:48:27;2.90;99.90
9450;DHT22;4763;48.370;10.874;2023-04-03T05:51:16;3.00;99.90
9450;DHT22;4763;48.370;10.874;2023-04-03T05:54:09;3.00;99.90
9450;DHT22;4763;48.370;10.874;2023-04-03T05:56:59;3.00;99.90
9450;DHT22;4763;48.370;10.874;2023-04-03T05:59:46;3.00;99.90
9450;DHT22;4763;48.370;10.874;2023-04-03T06:02:35;3.00;99.90
9450;DHT22;4763;48.370;10.874;2023-04-03T06:05:22;3.00;99.90
9450;DHT22;4763;48.370;10.874;2023-04-03T06:08:10;3.00;99.90
9450;DHT22;4763;48.370;10.874;2023-04-03T06:10:57;3.00;99.90
9450;DHT22;4763;48.370;10.874;2023-04-03T06:13:44;3.00;99.90
9450;DHT22;4763;48.370;10.874;2023-04-03T06:16:31;3.00;99.90
9450;DHT22;4763;48.370;10.874;2023-04-03T06:19:21;3.10;99.90
9450;DHT22;4763;48.370;10.874;2023-04-03T06:22:08;3.10;99.90
9450;DHT22;4763;48.370;10.874;2023-04-03T06:24:57;3.20;99.90
9450;DHT22;4763;48.370;10.874;2023-04-03T06:27:44;3.20;99.90
9450;DHT22;4763;48.370;10.874;2023-04-03T06:30:31;3.20;99.90
9450;DHT22;4763;48.370;10.874;2023-04-03T06:33:18;3.30;99.90
9450;DHT22;4763;48.370;10.874;2023-04-03T06:36:10;3.30;99.90
9450;DHT22;4763;48.370;10.874;2023-04-03T06:38:58;3.30;99.90
9450;DHT22;4763;48.370;10.874;2023-04-03T06:41:45;3.40;99.90
9450;DHT22;4763;48.370;10.874;2023-04-03T06:44:32;3.40;99.90
9450;DHT22;4763;48.370;10.874;2023-04-03T06:47:20;3.50;99.90
9450;DHT22;4763;48.370;10.874;2023-04-03T06:50:09;3.50;99.90
9450;DHT22;4763;48.370;10.874;2023-04-03T06:52:58;3.60;99.90
9450;DHT22;4763;48.370;10.874;2023-04-03T06:55:46;3.60;99.90
9450;DHT22;4763;48.370;10.874;2023-04-03T06:58:33;3.70;99.90
9450;DHT22;4763;48.370;10.874;2023-04-03T07:01:21;3.70;99.90
9450;DHT22;4763;48.370;10.874;2023-04-03T07:04:08;3.80;99.90
9450;DHT22;4763;48.370;10.874;2023-04-03T07:06:55;3.80;99.90
9450;DHT22;4763;48.370;10.874;2023-04-03T07:09:44;3.80;99.90
9450;DHT22;4763;48.370;10.874;2023-04-03T07:12:32;4.00;99.90
9450;DHT22;4763;48.370;10.874;2023-04-03T07:15:19;4.10;99.90
9450;DHT22;4763;48.370;10.874;2023-04-03T07:18:06;4.10;99.90
9450;DHT22;4763;48.370;10.874;2023-04-03T07:20:53;4.20;99.90
9450;DHT22;4763;48.370;10.874;2023-04-03T07:23:41;4.20;99.90
9450;DHT22;4763;48.370;10.874;2023-04-03T07:26:29;4.30;99.90
9450;DHT22;4763;48.370;10.874;2023-04-03T07:29:17;4.40;99.90
9450;DHT22;4763;48.370;10.874;2023-04-03T07:32:04;4.40;99.90
9450;DHT22;4763;48.370;10.874;2023-04-03T07:34:52;4.40;99.90
9450;DHT22;4763;48.370;10.874;2023-04-03T07:37:39;4.40;99.90
9450;DHT22;4763;48.370;10.874;2023-04-03T07:40:26;4.50;99.90
9450;DHT22;4763;48.370;10.874;2023-04-03T07:43:16;4.60;99.90
9450;DHT22;4763;48.370;10.874;2023-04-03T07:46:05;4.60;99.90
9450;DHT22;4763;48.370;10.874;2023-04-03T07:48:52;4.80;99.90
9450;DHT22;4763;48.370;10.874;2023-04-03T07:51:39;4.80;99.90
9450;DHT22;4763;48.370;10.874;2023-04-03T07:54:26;4.60;99.90
9450;DHT22;4763;48.370;10.874;2023-04-03T07:57:14;4.70;99.90
9450;DHT22;4763;48.370;10.874;2023-04-03T08:00:04;4.80;99.90
9450;DHT22;4763;48.370;10.874;2023-04-03T08:02:51;4.90;99.90
9450;DHT22;4763;48.370;10.874;2023-04-03T08:05:40;4.90;99.90
9450;DHT22;4763;48.370;10.874;2023-04-03T08:08:27;4.90;99.90
9450;DHT22;4763;48.370;10.874;2023-04-03T08:11:15;4.90;99.90
9450;DHT22;4763;48.370;10.874;2023-04-03T08:14:04;5.00;99.90
9450;DHT22;4763;48.370;10.874;2023-04-03T08:16:53;5.00;99.90
9450;DHT22;4763;48.370;10.874;2023-04-03T08:19:40;5.10;99.90
9450;DHT22;4763;48.370;10.874;2023-04-03T08:22:28;5.00;99.90
9450;DHT22;4763;48.370;10.874;2023-04-03T08:25:15;5.00;99.90
9450;DHT22;4763;48.370;10.874;2023-04-03T08:28:03;5.00;99.90
9450;DHT22;4763;48.370;10.874;2023-04-03T08:30:50;5.10;99.90
9450;DHT22;4763;48.370;10.874;2023-04-03T08:33:39;5.20;99.90
9450;DHT22;4763;48.370;10.874;2023-04-03T08:36:28;5.30;99.90
9450;DHT22;4763;48.370;10.874;2023-04-03T08:39:15;5.30;99.90
9450;DHT22;4763;48.370;10.874;2023-04-03T08:42:05;5.40;99.90
9450;DHT22;4763;48.370;10.874;2023-04-03T08:45:00;5.40;99.90
9450;DHT22;4763;48.370;10.874;2023-04-03T08:47:53;5.40;99.90
9450;DHT22;4763;48.370;10.874;2023-04-03T08:50:45;5.40;99.90
9450;DHT22;4763;48.370;10.874;2023-04-03T08:53:37;5.50;99.90
9450;DHT22;4763;48.370;10.874;2023-04-03T08:56:27;5.50;99.90
9450;DHT22;4763;48.370;10.874;2023-04-03T08:59:19;5.40;99.90
9450;DHT22;4763;48.370;10.874;2023-04-03T09:02:23;5.30;99.90
9450;DHT22;4763;48.370;10.874;2023-04-03T09:05:15;5.40;99.90
9450;DHT22;4763;48.370;10.874;2023-04-03T09:08:07;5.30;99.90
9450;DHT22;4763;48.370;10.874;2023-04-03T09:11:09;5.20;99.90
9450;DHT22;4763;48.370;10.874;2023-04-03T09:14:03;5.20;99.90
9450;DHT22;4763;48.370;10.874;2023-04-03T09:16:55;5.10;99.90
9450;DHT22;4763;48.370;10.874;2023-04-03T09:19:50;5.20;99.90
9450;DHT22;4763;48.370;10.874;2023-04-03T09:22:43;5.30;99.90
9450;DHT22;4763;48.370;10.874;2023-04-03T09:25:33;5.40;99.90
9450;DHT22;4763;48.370;10.874;2023-04-03T09:28:23;5.20;99.90
9450;DHT22;4763;48.370;10.874;2023-04-03T09:31:19;5.20;99.90
9450;DHT22;4763;48.370;10.874;2023-04-03T09:34:11;5.30;99.90
9450;DHT22;4763;48.370;10.874;2023-04-03T09:37:01;5.20;99.90
9450;DHT22;4763;48.370;10.874;2023-04-03T09:39:53;5.20;99.90
9450;DHT22;4763;48.370;10.874;2023-04-03T09:42:43;5.20;99.90
9450;DHT22;4763;48.370;10.874;2023-04-03T09:45:33;5.20;99.90
9450;DHT22;4763;48.370;10.874;2023-04-03T09:48:21;5.20;99.90
9450;DHT22;4763;48.370;10.874;2023-04-03T09:51:15;5.20;99.90
9450;DHT22;4763;48.370;10.874;2023-04-03T09:54:24;5.40;99.90
9450;DHT22;4763;48.370;10.874;2023-04-03T09:57:13;5.50;99.90
9450;DHT22;4763;48.370;10.874;2023-04-03T10:00:03;5.60;99.90
9450;DHT22;4763;48.370;10.874;2023-04-03T10:02:53;5.60;99.90
9450;DHT22;4763;48.370;10.874;2023-04-03T10:05:42;5.70;99.90
9450;DHT22;4763;48.370;10.874;2023-04-03T10:08:30;5.80;99.90
9450;DHT22;4763;48.370;10.874;2023-04-03T10:11:17;5.80;99.90
9450;DHT22;4763;48.370;10.874;2023-04-03T10:14:16;5.80;99.90
9450;DHT22;4763;48.370;10.874;2023-04-03T10:17:14;5.80;99.90
9450;DHT22;4763;48.370;10.874;2023-04-03T10:20:16;5.80;99.90
9450;DHT22;4763;48.370;10.874;2023-04-03T10:23:17;5.80;99.90
9450;DHT22;4763;48.370;10.874;2023-04-03T10:26:12;5.70;99.90
9450;DHT22;4763;48.370;10.874;2023-04-03T10:29:09;5.70;99.90
9450;DHT22;4763;48.370;10.874;2023-04-03T10:32:15;5.60;99.90
9450;DHT22;4763;48.370;10.874;2023-04-03T10:35:12;5.60;99.90
9450;DHT22;4763;48.370;10.874;2023-04-03T10:38:08;5.50;99.90
9450;DHT22;4763;48.370;10.874;2023-04-03T10:41:01;5.40;99.90
9450;DHT22;4763;48.370;10.874;2023-04-03T10:43:59;5.60;99.90
9450;DHT22;4763;48.370;10.874;2023-04-03T10:46:53;5.60;99.90
9450;DHT22;4763;48.370;10.874;2023-04-03T10:49:53;5.70;99.90
9450;DHT22;4763;48.370;10.874;2023-04-03T10:52:47;5.60;99.90
9450;DHT22;4763;48.370;10.874;2023-04-03T10:55:43;5.50;99.90
9450;DHT22;4763;48.370;10.874;2023-04-03T10:58:34;5.60;99.90
9450;DHT22;4763;48.370;10.874;2023-04-03T11:01:25;5.70;99.90
9450;DHT22;4763;48.370;10.874;2023-04-03T11:04:15;5.60;99.90
9450;DHT22;4763;48.370;10.874;2023-04-03T11:07:08;5.60;99.90
9450;DHT22;4763;48.370;10.874;2023-04-03T11:10:00;5.60;99.90
9450;DHT22;4763;48.370;10.874;2023-04-03T11:12:52;5.50;99.90
9450;DHT22;4763;48.370;10.874;2023-04-03T11:15:42;5.50;99.90
9450;DHT22;4763;48.370;10.874;2023-04-03T11:18:34;5.50;99.90
9450;DHT22;4763;48.370;10.874;2023-04-03T11:21:27;5.50;99.90
9450;DHT22;4763;48.370;10.874;2023-04-03T11:24:22;5.50;99.90
9450;DHT22;4763;48.370;10.874;2023-04-03T11:27:16;5.30;99.90
9450;DHT22;4763;48.370;10.874;2023-04-03T11:30:15;5.30;99.90
9450;DHT22;4763;48.370;10.874;2023-04-03T11:33:15;5.20;99.90
9450;DHT22;4763;48.370;10.874;2023-04-03T11:36:08;5.20;99.90
9450;DHT22;4763;48.370;10.874;2023-04-03T11:38:59;5.20;99.90
9450;DHT22;4763;48.370;10.874;2023-04-03T11:41:48;5.40;99.90
9450;DHT22;4763;48.370;10.874;2023-04-03T11:44:37;5.50;99.90
9450;DHT22;4763;48.370;10.874;2023-04-03T11:47:43;5.50;99.90
9450;DHT22;4763;48.370;10.874;2023-04-03T11:50:39;5.60;99.90
9450;DHT22;4763;48.370;10.874;2023-04-03T11:53:33;5.70;99.90
9450;DHT22;4763;48.370;10.874;2023-04-03T11:56:32;5.70;99.90
9450;DHT22;4763;48.370;10.874;2023-04-03T11:59:24;5.60;99.90
9450;DHT22;4763;48.370;10.874;2023-04-03T12:02:34;5.70;99.90
9450;DHT22;4763;48.370;10.874;2023-04-03T12:05:26;5.90;99.90
9450;DHT22;4763;48.370;10.874;2023-04-03T12:08:24;6.00;99.90
9450;DHT22;4763;48.370;10.874;2023-04-03T12:11:15;6.00;99.90
9450;DHT22;4763;48.370;10.874;2023-04-03T12:14:14;5.90;99.90
9450;DHT22;4763;48.370;10.874;2023-04-03T12:17:20;6.00;99.90
9450;DHT22;4763;48.370;10.874;2023-04-03T12:23:28;6.20;99.90
9450;DHT22;4763;48.370;10.874;2023-04-03T12:26:23;6.30;99.90
9450;DHT22;4763;48.370;10.874;2023-04-03T12:29:17;6.50;99.90
9450;DHT22;4763;48.370;10.874;2023-04-03T12:32:15;6.50;99.90
9450;DHT22;4763;48.370;10.874;2023-04-03T12:35:17;6.70;99.90
9450;DHT22;4763;48.370;10.874;2023-04-03T12:38:31;6.80;99.90
9450;DHT22;4763;48.370;10.874;2023-04-03T12:41:27;6.90;99.90
9450;DHT22;4763;48.370;10.874;2023-04-03T12:44:34;6.80;99.90
9450;DHT22;4763;48.370;10.874;2023-04-03T12:47:28;7.10;99.90
9450;DHT22;4763;48.370;10.874;2023-04-03T12:50:23;7.50;99.90
9450;DHT22;4763;48.370;10.874;2023-04-03T12:53:13;8.10;99.90
9450;DHT22;4763;48.370;10.874;2023-04-03T12:56:20;8.90;99.90
9450;DHT22;4763;48.370;10.874;2023-04-03T12:59:15;9.20;99.90
9450;DHT22;4763;48.370;10.874;2023-04-03T13:02:03;9.50;99.90
9450;DHT22;4763;48.370;10.874;2023-04-03T13:05:04;9.30;99.90
9450;DHT22;4763;48.370;10.874;2023-04-03T13:07:56;9.10;99.90
9450;DHT22;4763;48.370;10.874;2023-04-03T13:10:50;9.00;99.90
9450;DHT22;4763;48.370;10.874;2023-04-03T13:13:38;9.00;99.90
9450;DHT22;4763;48.370;10.874;2023-04-03T13:16:26;8.90;99.90
9450;DHT22;4763;48.370;10.874;2023-04-03T13:19:16;8.40;99.90
9450;DHT22;4763;48.370;10.874;2023-04-03T13:22:11;8.00;99.90
9450;DHT22;4763;48.370;10.874;2023-04-03T13:25:07;7.80;99.90
9450;DHT22;4763;48.370;10.874;2023-04-03T13:27:55;7.50;99.90
9450;DHT22;4763;48.370;10.874;2023-04-03T13:30:59;7.30;99.90
9450;DHT22;4763;48.370;10.874;2023-04-03T13:33:54;7.20;99.90
9450;DHT22;4763;48.370;10.874;2023-04-03T13:36:44;7.10;99.90
9450;DHT22;4763;48.370;10.874;2023-04-03T13:39:34;7.10;99.90
9450;DHT22;4763;48.370;10.874;2023-04-03T13:42:24;6.90;99.90
9450;DHT22;4763;48.370;10.874;2023-04-03T13:45:19;7.00;99.90
9450;DHT22;4763;48.370;10.874;2023-04-03T13:48:11;7.10;99.90
9450;DHT22;4763;48.370;10.874;2023-04-03T13:51:05;7.20;99.90
9450;DHT22;4763;48.370;10.874;2023-04-03T13:53:54;7.20;99.90
9450;DHT22;4763;48.370;10.874;2023-04-03T13:56:43;7.30;99.90
9450;DHT22;4763;48.370;10.874;2023-04-03T13:59:31;7.40;99.90
9450;DHT22;4763;48.370;10.874;2023-04-03T14:02:21;7.40;99.90
9450;DHT22;4763;48.370;10.874;2023-04-03T14:05:09;7.50;99.90
9450;DHT22;4763;48.370;10.874;2023-04-03T14:07:56;7.40;99.90
9450;DHT22;4763;48.370;10.874;2023-04-03T14:10:44;7.40;99.90
9450;DHT22;4763;48.370;10.874;2023-04-03T14:13:34;7.40;99.90
9450;DHT22;4763;48.370;10.874;2023-04-03T14:16:23;7.90;99.90
9450;DHT22;4763;48.370;10.874;2023-04-03T14:19:19;8.70;99.90
9450;DHT22;4763;48.370;10.874;2023-04-03T14:22:13;8.70;99.90
9450;DHT22;4763;48.370;10.874;2023-04-03T14:25:01;8.60;99.90
9450;DHT22;4763;48.370;10.874;2023-04-03T14:27:50;8.40;99.90
9450;DHT22;4763;48.370;10.874;2023-04-03T14:30:39;8.20;99.90
9450;DHT22;4763;48.370;10.874;2023-04-03T14:33:26;7.90;99.90
9450;DHT22;4763;48.370;10.874;2023-04-03T14:36:19;7.80;99.90
9450;DHT22;4763;48.370;10.874;2023-04-03T14:39:10;7.90;99.90
9450;DHT22;4763;48.370;10.874;2023-04-03T14:41:57;7.90;99.90
9450;DHT22;4763;48.370;10.874;2023-04-03T14:44:44;8.00;99.90
9450;DHT22;4763;48.370;10.874;2023-04-03T14:47:39;8.20;99.90
9450;DHT22;4763;48.370;10.874;2023-04-03T14:50:27;8.40;99.90
9450;DHT22;4763;48.370;10.874;2023-04-03T14:53:14;9.10;99.90
9450;DHT22;4763;48.370;10.874;2023-04-03T14:56:02;9.80;99.90
9450;DHT22;4763;48.370;10.874;2023-04-03T14:58:57;10.10;99.90
9450;DHT22;4763;48.370;10.874;2023-04-03T15:01:44;10.50;98.60
9450;DHT22;4763;48.370;10.874;2023-04-03T15:04:32;11.10;98.30
9450;DHT22;4763;48.370;10.874;2023-04-03T15:07:20;11.10;97.60
9450;DHT22;4763;48.370;10.874;2023-04-03T15:10:16;11.50;97.80
9450;DHT22;4763;48.370;10.874;2023-04-03T15:13:03;11.90;97.90
9450;DHT22;4763;48.370;10.874;2023-04-03T15:15:50;12.60;94.90
9450;DHT22;4763;48.370;10.874;2023-04-03T15:18:38;12.30;92.50
9450;DHT22;4763;48.370;10.874;2023-04-03T15:21:26;12.40;93.70
9450;DHT22;4763;48.370;10.874;2023-04-03T15:24:13;12.70;94.60
9450;DHT22;4763;48.370;10.874;2023-04-03T15:27:01;12.90;93.90
9450;DHT22;4763;48.370;10.874;2023-04-03T15:29:48;13.00;92.10
9450;DHT22;4763;48.370;10.874;2023-04-03T15:32:35;12.80;92.50
9450;DHT22;4763;48.370;10.874;2023-04-03T15:35:22;12.20;92.70
9450;DHT22;4763;48.370;10.874;2023-04-03T15:38:11;12.30;94.00
9450;DHT22;4763;48.370;10.874;2023-04-03T15:40:58;12.60;93.10
9450;DHT22;4763;48.370;10.874;2023-04-03T15:43:45;12.20;91.40
9450;DHT22;4763;48.370;10.874;2023-04-03T15:46:32;12.30;94.50
9450;DHT22;4763;48.370;10.874;2023-04-03T15:49:20;12.70;92.00
9450;DHT22;4763;48.370;10.874;2023-04-03T15:52:08;12.90;90.70
9450;DHT22;4763;48.370;10.874;2023-04-03T15:54:56;12.90;91.20
9450;DHT22;4763;48.370;10.874;2023-04-03T15:57:43;13.00;90.60
9450;DHT22;4763;48.370;10.874;2023-04-03T16:00:30;12.70;88.30
9450;DHT22;4763;48.370;10.874;2023-04-03T16:03:20;12.40;86.40
9450;DHT22;4763;48.370;10.874;2023-04-03T16:06:08;12.50;91.30
9450;DHT22;4763;48.370;10.874;2023-04-03T16:08:55;12.10;91.20
9450;DHT22;4763;48.370;10.874;2023-04-03T16:11:45;10.90;91.40
9450;DHT22;4763;48.370;10.874;2023-04-03T16:14:32;10.20;92.10
9450;DHT22;4763;48.370;10.874;2023-04-03T16:17:19;9.60;92.00
9450;DHT22;4763;48.370;10.874;2023-04-03T16:20:07;9.20;93.00
9450;DHT22;4763;48.370;10.874;2023-04-03T16:22:56;8.80;94.10
9450;DHT22;4763;48.370;10.874;2023-04-03T16:25:44;8.60;93.60
9450;DHT22;4763;48.370;10.874;2023-04-03T16:28:33;8.50;93.70
9450;DHT22;4763;48.370;10.874;2023-04-03T16:31:20;8.30;94.90
9450;DHT22;4763;48.370;10.874;2023-04-03T16:34:08;8.10;92.00
9450;DHT22;4763;48.370;10.874;2023-04-03T16:36:55;8.00;93.90
9450;DHT22;4763;48.370;10.874;2023-04-03T16:39:42;8.00;95.40
9450;DHT22;4763;48.370;10.874;2023-04-03T16:42:30;8.00;93.70
9450;DHT22;4763;48.370;10.874;2023-04-03T16:45:18;7.70;93.70
9450;DHT22;4763;48.370;10.874;2023-04-03T16:48:06;7.50;93.40
9450;DHT22;4763;48.370;10.874;2023-04-03T16:50:53;7.20;94.30
9450;DHT22;4763;48.370;10.874;2023-04-03T16:53:40;6.90;94.70
9450;DHT22;4763;48.370;10.874;2023-04-03T16:56:27;6.70;95.10
9450;DHT22;4763;48.370;10.874;2023-04-03T16:59:14;6.50;95.10
9450;DHT22;4763;48.370;10.874;2023-04-03T17:02:03;6.40;95.30
9450;DHT22;4763;48.370;10.874;2023-04-03T17:04:50;6.40;95.60
9450;DHT22;4763;48.370;10.874;2023-04-03T17:07:38;6.30;95.80
9450;DHT22;4763;48.370;10.874;2023-04-03T17:10:25;6.20;95.60
9450;DHT22;4763;48.370;10.874;2023-04-03T17:13:12;6.20;95.80
9450;DHT22;4763;48.370;10.874;2023-04-03T17:16:00;6.20;96.70
9450;DHT22;4763;48.370;10.874;2023-04-03T17:18:50;6.20;95.80
9450;DHT22;4763;48.370;10.874;2023-04-03T17:21:37;6.00;95.80
9450;DHT22;4763;48.370;10.874;2023-04-03T17:24:25;5.90;96.20
9450;DHT22;4763;48.370;10.874;2023-04-03T17:27:12;5.80;96.60
9450;DHT22;4763;48.370;10.874;2023-04-03T17:29:59;5.70;96.70
9450;DHT22;4763;48.370;10.874;2023-04-03T17:32:46;5.70;97.00
9450;DHT22;4763;48.370;10.874;2023-04-03T17:35:35;5.60;96.40
9450;DHT22;4763;48.370;10.874;2023-04-03T17:38:22;5.50;96.80
9450;DHT22;4763;48.370;10.874;2023-04-03T17:41:09;5.50;97.40
9450;DHT22;4763;48.370;10.874;2023-04-03T17:43:56;5.40;97.80
9450;DHT22;4763;48.370;10.874;2023-04-03T17:46:43;5.50;97.90
9450;DHT22;4763;48.370;10.874;2023-04-03T17:49:31;5.40;98.20
9450;DHT22;4763;48.370;10.874;2023-04-03T17:52:19;5.20;98.10
9450;DHT22;4763;48.370;10.874;2023-04-03T17:55:08;5.20;98.70
9450;DHT22;4763;48.370;10.874;2023-04-03T17:57:57;5.10;98.60
9450;DHT22;4763;48.370;10.874;2023-04-03T18:00:44;5.00;99.00
9450;DHT22;4763;48.370;10.874;2023-04-03T18:03:32;4.90;98.60
9450;DHT22;4763;48.370;10.874;2023-04-03T18:06:21;4.80;98.90
9450;DHT22;4763;48.370;10.874;2023-04-03T18:09:12;4.70;99.40
9450;DHT22;4763;48.370;10.874;2023-04-03T18:12:03;4.70;99.10
9450;DHT22;4763;48.370;10.874;2023-04-03T18:14:52;4.70;99.80
9450;DHT22;4763;48.370;10.874;2023-04-03T18:17:39;4.60;99.70
9450;DHT22;4763;48.370;10.874;2023-04-03T18:20:26;4.50;99.60
9450;DHT22;4763;48.370;10.874;2023-04-03T18:23:13;4.50;99.90
9450;DHT22;4763;48.370;10.874;2023-04-03T18:26:02;4.30;99.90
9450;DHT22;4763;48.370;10.874;2023-04-03T18:28:53;4.30;99.90